createdAt,value
2022-11-20T00:04:02.370Z,98318.41
2022-11-20T00:14:12.225Z,98307.80
2022-11-20T00:34:26.333Z,98300.97
2022-11-20T00:44:34.129Z,98298.04
2022-11-20T00:54:41.281Z,98293.27
2022-11-20T01:04:48.465Z,98287.74
2022-11-20T01:14:55.778Z,98277.88
2022-11-20T01:25:03.495Z,98275.92
2022-11-20T01:35:08.275Z,98274.29
2022-11-20T01:45:44.425Z,98265.37
2022-11-20T01:55:55.448Z,98266.13
2022-11-20T02:06:05.982Z,98253.88
2022-11-20T02:16:11.733Z,98255.77
2022-11-20T02:26:22.254Z,98248.94
2022-11-20T02:36:32.520Z,98248.89
2022-11-20T02:46:41.035Z,98256.61
2022-11-20T02:56:47.986Z,98254.39
2022-11-20T03:06:56.406Z,98262.13
2022-11-20T03:17:04.380Z,98261.73
2022-11-20T03:27:11.346Z,98261.58
2022-11-20T03:37:18.353Z,98255.84
2022-11-20T03:47:25.489Z,98257.02
2022-11-20T03:57:32.764Z,98252.58
2022-11-20T04:07:39.828Z,98243.68
2022-11-20T04:17:46.316Z,98243.63
2022-11-20T04:27:53.429Z,98251.94
2022-11-20T04:38:00.698Z,98254.35
2022-11-20T04:48:05.477Z,98254.38
2022-11-20T04:58:13.215Z,98247.42
2022-11-20T05:08:19.476Z,98235.14
2022-11-20T05:18:27.196Z,98222.36
2022-11-20T05:28:34.635Z,98217.27
2022-11-20T05:38:42.224Z,98210.15
2022-11-20T05:48:49.943Z,98210.27
2022-11-20T05:58:58.271Z,98209.88
2022-11-20T06:09:05.968Z,98203.98
2022-11-20T06:19:13.313Z,98208.73
2022-11-20T06:29:19.612Z,98204.71
2022-11-20T06:39:26.788Z,98204.94
2022-11-20T06:49:33.424Z,98198.64
2022-11-20T07:09:46.266Z,98200.88
2022-11-20T07:19:53.539Z,98190.87
2022-11-20T07:30:00.504Z,98179.91
2022-11-20T07:40:08.616Z,98164.53
2022-11-20T07:50:16.610Z,98147.69
2022-11-20T08:00:21.451Z,98146.89
2022-11-20T08:10:29.283Z,98139.48
2022-11-20T08:20:37.550Z,98135.52
2022-11-20T08:30:45.419Z,98143.52
2022-11-20T08:41:06.487Z,98148.03
2022-11-20T08:51:15.386Z,98144.65
2022-11-20T09:01:23.227Z,98146.71
2022-11-20T09:11:30.545Z,98147.27
2022-11-20T09:21:39.163Z,98138.71
2022-11-20T09:31:46.482Z,98127.05
2022-11-20T09:42:20.598Z,98120.14
2022-11-20T09:52:43.633Z,98106.70
2022-11-20T10:02:52.334Z,98096.88
2022-11-20T10:13:02.469Z,98086.87
2022-11-20T10:23:14.305Z,98075.13
2022-11-20T10:33:23.393Z,98076.22
2022-11-20T10:43:35.223Z,98073.46
2022-11-20T10:53:43.440Z,98073.17
2022-11-20T11:03:51.936Z,98063.23
2022-11-20T11:14:06.384Z,98052.64
2022-11-20T11:24:41.176Z,98047.64
2022-11-20T11:35:00.581Z,98026.09
2022-11-20T11:45:07.927Z,98016.57
2022-11-20T11:55:21.712Z,98009.93
2022-11-20T12:05:29.832Z,97995.59
2022-11-20T12:15:37.944Z,97979.20
2022-11-20T12:25:46.158Z,97973.14
2022-11-20T12:35:58.268Z,97965.63
2022-11-20T12:46:11.777Z,97949.41
2022-11-20T12:56:19.603Z,97944.72
2022-11-20T13:06:28.500Z,97923.14
2022-11-20T13:16:38.327Z,97918.65
2022-11-20T13:26:44.498Z,97911.74
2022-11-20T13:36:57.184Z,97909.79
2022-11-20T13:47:04.301Z,97902.70
2022-11-20T13:57:12.772Z,97891.50
2022-11-20T14:07:20.131Z,97889.91
2022-11-20T14:17:32.929Z,97887.00
2022-11-20T14:27:41.342Z,97892.38
2022-11-20T14:37:49.234Z,97883.02
2022-11-20T14:47:56.451Z,97880.19
2022-11-20T14:58:01.324Z,97880.96
2022-11-20T15:08:13.452Z,97861.65
2022-11-20T15:18:21.687Z,97846.98
2022-11-20T15:28:32.633Z,97842.23
2022-11-20T15:38:40.453Z,97831.67
2022-11-20T15:48:53.402Z,97832.23
2022-11-20T15:59:00.557Z,97830.63
2022-11-20T16:09:08.031Z,97828.61
2022-11-20T16:19:15.525Z,97828.38
2022-11-20T16:29:21.499Z,97832.09
2022-11-20T16:39:28.361Z,97836.40
2022-11-20T16:49:36.137Z,97836.23
2022-11-20T16:59:42.911Z,97832.90
2022-11-20T17:09:49.295Z,97823.29
2022-11-20T17:19:56.667Z,97814.31
2022-11-20T17:30:03.968Z,97813.92
2022-11-20T17:40:10.201Z,97802.06
2022-11-20T17:50:17.535Z,97793.70
2022-11-20T18:00:25.327Z,97785.48
2022-11-20T18:10:30.587Z,97780.45
2022-11-20T18:20:40.036Z,97762.75
2022-11-20T18:30:47.695Z,97759.79
2022-11-20T18:40:54.919Z,97765.59
2022-11-20T18:51:06.494Z,97773.84
2022-11-20T19:01:13.995Z,97783.74
2022-11-20T19:11:20.933Z,97797.13
2022-11-20T19:21:28.615Z,97802.02
2022-11-20T19:31:35.959Z,97798.95
2022-11-20T19:41:44.072Z,97800.80
2022-11-20T19:51:52.304Z,97795.13
2022-11-20T20:01:59.774Z,97792.05
2022-11-20T20:12:07.769Z,97810.42
2022-11-20T20:22:15.003Z,97803.64
2022-11-20T20:32:22.371Z,97799.43
2022-11-20T20:42:30.745Z,97799.25
2022-11-20T20:52:39.438Z,97794.09
2022-11-20T21:02:46.476Z,97800.31
2022-11-20T21:12:52.932Z,97806.54
2022-11-20T21:23:00.045Z,97799.90
2022-11-20T21:33:07.103Z,97813.13
2022-11-20T21:43:14.299Z,97819.30
2022-11-20T21:53:21.432Z,97840.08
2022-11-20T22:03:28.721Z,97859.80
2022-11-20T22:13:53.931Z,97860.84
2022-11-20T22:24:01.651Z,97855.89
2022-11-20T22:34:11.287Z,97851.11
2022-11-20T22:44:16.582Z,97844.05
2022-11-20T22:54:24.260Z,97836.85
2022-11-20T23:04:31.811Z,97842.48
2022-11-20T23:14:38.954Z,97836.26
2022-11-20T23:24:46.471Z,97838.12
2022-11-20T23:34:53.662Z,97834.17
2022-11-20T23:44:59.805Z,97832.91
2022-11-20T23:55:08.042Z,97830.43
